sensor_id;sensor_type;location;lat;lon;timestamp;P1;durP1;ratioP1;P2;durP2;ratioP2
65863;SDS011;52639;51.180;20.460;2022-11-20T00:01:19;25.92;;;10.57;;
65863;SDS011;52639;51.180;20.460;2022-11-20T00:05:24;26.77;;;12.02;;
65863;SDS011;52639;51.180;20.460;2022-11-20T00:09:26;37.85;;;14.77;;
65863;SDS011;52639;51.180;20.460;2022-11-20T00:13:30;34.90;;;16.08;;
65863;SDS011;52639;51.180;20.460;2022-11-20T00:17:33;27.55;;;13.80;;
65863;SDS011;52639;51.180;20.460;2022-11-20T00:21:35;21.35;;;9.50;;
65863;SDS011;52639;51.180;20.460;2022-11-20T00:25:38;20.98;;;11.68;;
65863;SDS011;52639;51.180;20.460;2022-11-20T00:29:42;38.83;;;16.75;;
65863;SDS011;52639;51.180;20.460;2022-11-20T00:33:45;44.58;;;14.90;;
65863;SDS011;52639;51.180;20.460;2022-11-20T00:37:48;33.30;;;13.93;;
65863;SDS011;52639;51.180;20.460;2022-11-20T00:41:50;35.85;;;15.43;;
65863;SDS011;52639;51.180;20.460;2022-11-20T00:45:57;31.95;;;13.90;;
65863;SDS011;52639;51.180;20.460;2022-11-20T00:50:00;26.13;;;14.15;;
65863;SDS011;52639;51.180;20.460;2022-11-20T00:54:03;27.00;;;13.63;;
65863;SDS011;52639;51.180;20.460;2022-11-20T00:58:05;34.25;;;14.52;;
65863;SDS011;52639;51.180;20.460;2022-11-20T01:02:09;32.75;;;14.70;;
65863;SDS011;52639;51.180;20.460;2022-11-20T01:06:13;36.75;;;14.70;;
65863;SDS011;52639;51.180;20.460;2022-11-20T01:10:17;31.42;;;13.73;;
65863;SDS011;52639;51.180;20.460;2022-11-20T01:14:20;32.40;;;12.30;;
65863;SDS011;52639;51.180;20.460;2022-11-20T01:18:24;27.05;;;11.25;;
65863;SDS011;52639;51.180;20.460;2022-11-20T01:22:26;37.00;;;14.05;;
65863;SDS011;52639;51.180;20.460;2022-11-20T01:26:29;20.85;;;10.68;;
65863;SDS011;52639;51.180;20.460;2022-11-20T01:30:33;29.85;;;14.32;;
65863;SDS011;52639;51.180;20.460;2022-11-20T01:34:37;21.35;;;11.07;;
65863;SDS011;52639;51.180;20.460;2022-11-20T01:38:39;30.95;;;14.02;;
65863;SDS011;52639;51.180;20.460;2022-11-20T01:42:44;29.58;;;13.27;;
65863;SDS011;52639;51.180;20.460;2022-11-20T01:47:07;38.15;;;14.82;;
65863;SDS011;52639;51.180;20.460;2022-11-20T01:51:15;36.70;;;12.40;;
65863;SDS011;52639;51.180;20.460;2022-11-20T01:59:26;23.48;;;12.80;;
65863;SDS011;52639;51.180;20.460;2022-11-20T02:03:31;25.42;;;12.65;;
65863;SDS011;52639;51.180;20.460;2022-11-20T02:07:35;24.38;;;10.85;;
65863;SDS011;52639;51.180;20.460;2022-11-20T02:11:39;24.92;;;9.60;;
65863;SDS011;52639;51.180;20.460;2022-11-20T02:15:41;23.52;;;10.63;;
65863;SDS011;52639;51.180;20.460;2022-11-20T02:19:44;36.38;;;14.70;;
65863;SDS011;52639;51.180;20.460;2022-11-20T02:24:04;38.85;;;13.85;;
65863;SDS011;52639;51.180;20.460;2022-11-20T02:28:10;27.50;;;12.43;;
65863;SDS011;52639;51.180;20.460;2022-11-20T02:32:17;24.35;;;12.15;;
65863;SDS011;52639;51.180;20.460;2022-11-20T02:36:20;29.58;;;12.30;;
65863;SDS011;52639;51.180;20.460;2022-11-20T02:40:25;35.75;;;14.10;;
65863;SDS011;52639;51.180;20.460;2022-11-20T02:44:27;31.88;;;11.73;;
65863;SDS011;52639;51.180;20.460;2022-11-20T02:48:30;33.10;;;14.90;;
65863;SDS011;52639;51.180;20.460;2022-11-20T02:52:34;31.20;;;13.57;;
65863;SDS011;52639;51.180;20.460;2022-11-20T02:56:39;31.85;;;16.05;;
65863;SDS011;52639;51.180;20.460;2022-11-20T03:00:41;32.67;;;13.50;;
65863;SDS011;52639;51.180;20.460;2022-11-20T03:04:44;33.30;;;14.55;;
65863;SDS011;52639;51.180;20.460;2022-11-20T03:08:46;26.90;;;11.68;;
65863;SDS011;52639;51.180;20.460;2022-11-20T03:12:53;28.92;;;10.07;;
65863;SDS011;52639;51.180;20.460;2022-11-20T03:16:57;26.75;;;10.30;;
65863;SDS011;52639;51.180;20.460;2022-11-20T03:20:59;31.48;;;14.00;;
65863;SDS011;52639;51.180;20.460;2022-11-20T03:25:02;37.72;;;15.07;;
65863;SDS011;52639;51.180;20.460;2022-11-20T03:29:06;30.30;;;13.27;;
65863;SDS011;52639;51.180;20.460;2022-11-20T03:33:09;36.22;;;11.48;;
65863;SDS011;52639;51.180;20.460;2022-11-20T03:37:12;23.08;;;9.93;;
65863;SDS011;52639;51.180;20.460;2022-11-20T03:41:15;27.88;;;12.93;;
65863;SDS011;52639;51.180;20.460;2022-11-20T03:45:21;35.65;;;13.95;;
65863;SDS011;52639;51.180;20.460;2022-11-20T03:49:23;31.88;;;15.82;;
65863;SDS011;52639;51.180;20.460;2022-11-20T03:53:25;21.70;;;11.63;;
65863;SDS011;52639;51.180;20.460;2022-11-20T03:57:28;33.58;;;16.17;;
65863;SDS011;52639;51.180;20.460;2022-11-20T04:01:32;30.95;;;16.27;;
65863;SDS011;52639;51.180;20.460;2022-11-20T04:05:36;42.33;;;12.15;;
65863;SDS011;52639;51.180;20.460;2022-11-20T04:09:38;35.88;;;11.57;;
65863;SDS011;52639;51.180;20.460;2022-11-20T04:13:42;36.53;;;13.00;;
65863;SDS011;52639;51.180;20.460;2022-11-20T04:17:49;27.30;;;10.73;;
65863;SDS011;52639;51.180;20.460;2022-11-20T04:21:51;27.67;;;12.73;;
65863;SDS011;52639;51.180;20.460;2022-11-20T04:25:54;26.65;;;11.10;;
65863;SDS011;52639;51.180;20.460;2022-11-20T04:29:57;28.17;;;13.02;;
65863;SDS011;52639;51.180;20.460;2022-11-20T04:34:01;35.38;;;15.80;;
65863;SDS011;52639;51.180;20.460;2022-11-20T04:38:05;31.92;;;11.63;;
65863;SDS011;52639;51.180;20.460;2022-11-20T04:42:08;25.75;;;12.38;;
65863;SDS011;52639;51.180;20.460;2022-11-20T04:46:27;25.23;;;12.00;;
65863;SDS011;52639;51.180;20.460;2022-11-20T04:50:32;31.60;;;13.10;;
65863;SDS011;52639;51.180;20.460;2022-11-20T04:54:35;38.38;;;16.65;;
65863;SDS011;52639;51.180;20.460;2022-11-20T04:58:37;36.45;;;13.38;;
65863;SDS011;52639;51.180;20.460;2022-11-20T05:02:41;25.48;;;13.18;;
65863;SDS011;52639;51.180;20.460;2022-11-20T05:06:45;20.80;;;10.02;;
65863;SDS011;52639;51.180;20.460;2022-11-20T05:10:47;26.73;;;12.73;;
65863;SDS011;52639;51.180;20.460;2022-11-20T05:14:50;25.52;;;12.68;;
65863;SDS011;52639;51.180;20.460;2022-11-20T05:18:53;25.73;;;11.40;;
65863;SDS011;52639;51.180;20.460;2022-11-20T05:22:57;20.90;;;10.48;;
65863;SDS011;52639;51.180;20.460;2022-11-20T05:27:00;30.63;;;14.77;;
65863;SDS011;52639;51.180;20.460;2022-11-20T05:31:05;38.67;;;15.70;;
65863;SDS011;52639;51.180;20.460;2022-11-20T05:35:08;32.42;;;12.85;;
65863;SDS011;52639;51.180;20.460;2022-11-20T05:39:13;25.85;;;13.57;;
65863;SDS011;52639;51.180;20.460;2022-11-20T05:43:16;27.98;;;13.65;;
65863;SDS011;52639;51.180;20.460;2022-11-20T05:47:18;39.45;;;16.45;;
65863;SDS011;52639;51.180;20.460;2022-11-20T05:51:20;32.60;;;11.98;;
65863;SDS011;52639;51.180;20.460;2022-11-20T05:55:26;30.90;;;12.15;;
65863;SDS011;52639;51.180;20.460;2022-11-20T05:59:29;33.72;;;14.05;;
65863;SDS011;52639;51.180;20.460;2022-11-20T06:03:31;24.50;;;13.90;;
65863;SDS011;52639;51.180;20.460;2022-11-20T06:07:34;28.90;;;12.50;;
65863;SDS011;52639;51.180;20.460;2022-11-20T06:11:37;31.58;;;12.88;;
65863;SDS011;52639;51.180;20.460;2022-11-20T06:15:40;25.00;;;13.07;;
65863;SDS011;52639;51.180;20.460;2022-11-20T06:19:42;38.85;;;16.17;;
65863;SDS011;52639;51.180;20.460;2022-11-20T06:23:45;40.20;;;15.10;;
65863;SDS011;52639;51.180;20.460;2022-11-20T06:27:50;36.00;;;14.85;;
65863;SDS011;52639;51.180;20.460;2022-11-20T06:31:52;34.08;;;14.05;;
65863;SDS011;52639;51.180;20.460;2022-11-20T06:35:56;42.05;;;16.60;;
65863;SDS011;52639;51.180;20.460;2022-11-20T06:40:12;34.20;;;13.88;;
65863;SDS011;52639;51.180;20.460;2022-11-20T06:44:16;64.15;;;25.55;;
65863;SDS011;52639;51.180;20.460;2022-11-20T06:48:18;69.60;;;31.52;;
65863;SDS011;52639;51.180;20.460;2022-11-20T06:52:21;53.88;;;24.00;;
65863;SDS011;52639;51.180;20.460;2022-11-20T06:56:23;53.28;;;21.13;;
65863;SDS011;52639;51.180;20.460;2022-11-20T07:00:28;146.35;;;51.17;;
65863;SDS011;52639;51.180;20.460;2022-11-20T07:04:31;39.88;;;16.98;;
65863;SDS011;52639;51.180;20.460;2022-11-20T07:08:38;68.88;;;29.02;;
65863;SDS011;52639;51.180;20.460;2022-11-20T07:12:48;94.97;;;38.40;;
65863;SDS011;52639;51.180;20.460;2022-11-20T07:21:21;93.55;;;33.92;;
65863;SDS011;52639;51.180;20.460;2022-11-20T07:25:27;94.40;;;34.50;;
65863;SDS011;52639;51.180;20.460;2022-11-20T07:44:35;55.40;;;22.70;;
65863;SDS011;52639;51.180;20.460;2022-11-20T07:48:40;38.75;;;17.77;;
65863;SDS011;52639;51.180;20.460;2022-11-20T08:07:40;48.47;;;20.88;;
65863;SDS011;52639;51.180;20.460;2022-11-20T08:12:18;46.10;;;19.08;;
65863;SDS011;52639;51.180;20.460;2022-11-20T08:22:05;54.00;;;21.35;;
65863;SDS011;52639;51.180;20.460;2022-11-20T08:26:32;68.03;;;25.10;;
65863;SDS011;52639;51.180;20.460;2022-11-20T08:31:08;55.85;;;21.98;;
65863;SDS011;52639;51.180;20.460;2022-11-20T08:36:10;48.97;;;21.48;;
65863;SDS011;52639;51.180;20.460;2022-11-20T08:40:40;36.15;;;15.48;;
65863;SDS011;52639;51.180;20.460;2022-11-20T08:45:05;42.75;;;21.40;;
65863;SDS011;52639;51.180;20.460;2022-11-20T08:49:09;43.58;;;22.15;;
65863;SDS011;52639;51.180;20.460;2022-11-20T08:53:13;45.33;;;22.58;;
65863;SDS011;52639;51.180;20.460;2022-11-20T08:57:16;50.97;;;24.35;;
65863;SDS011;52639;51.180;20.460;2022-11-20T09:01:20;45.78;;;23.48;;
65863;SDS011;52639;51.180;20.460;2022-11-20T09:05:24;47.83;;;23.65;;
65863;SDS011;52639;51.180;20.460;2022-11-20T09:09:26;48.40;;;24.73;;
65863;SDS011;52639;51.180;20.460;2022-11-20T09:13:31;48.25;;;25.38;;
65863;SDS011;52639;51.180;20.460;2022-11-20T09:17:39;42.75;;;22.45;;
65863;SDS011;52639;51.180;20.460;2022-11-20T09:21:54;41.40;;;24.42;;
65863;SDS011;52639;51.180;20.460;2022-11-20T09:25:56;42.55;;;22.95;;
65863;SDS011;52639;51.180;20.460;2022-11-20T09:30:00;41.83;;;23.45;;
65863;SDS011;52639;51.180;20.460;2022-11-20T09:34:04;47.65;;;26.33;;
65863;SDS011;52639;51.180;20.460;2022-11-20T09:38:07;47.47;;;27.33;;
65863;SDS011;52639;51.180;20.460;2022-11-20T09:42:17;43.38;;;23.10;;
65863;SDS011;52639;51.180;20.460;2022-11-20T09:46:33;54.70;;;27.35;;
65863;SDS011;52639;51.180;20.460;2022-11-20T09:50:43;40.17;;;22.55;;
65863;SDS011;52639;51.180;20.460;2022-11-20T09:54:53;38.22;;;21.85;;
65863;SDS011;52639;51.180;20.460;2022-11-20T09:58:59;41.45;;;22.40;;
65863;SDS011;52639;51.180;20.460;2022-11-20T10:03:11;34.50;;;17.13;;
65863;SDS011;52639;51.180;20.460;2022-11-20T10:07:19;37.05;;;19.88;;
65863;SDS011;52639;51.180;20.460;2022-11-20T10:11:36;43.10;;;19.50;;
65863;SDS011;52639;51.180;20.460;2022-11-20T10:15:50;43.38;;;19.98;;
65863;SDS011;52639;51.180;20.460;2022-11-20T10:20:10;43.42;;;17.85;;
65863;SDS011;52639;51.180;20.460;2022-11-20T10:24:28;43.83;;;18.05;;
65863;SDS011;52639;51.180;20.460;2022-11-20T10:28:47;34.33;;;13.60;;
65863;SDS011;52639;51.180;20.460;2022-11-20T10:33:01;42.40;;;18.17;;
65863;SDS011;52639;51.180;20.460;2022-11-20T10:37:09;37.38;;;17.05;;
65863;SDS011;52639;51.180;20.460;2022-11-20T10:41:20;37.17;;;14.55;;
65863;SDS011;52639;51.180;20.460;2022-11-20T10:45:32;40.35;;;16.13;;
65863;SDS011;52639;51.180;20.460;2022-11-20T10:49:42;42.53;;;17.45;;
65863;SDS011;52639;51.180;20.460;2022-11-20T10:54:05;44.20;;;17.85;;
65863;SDS011;52639;51.180;20.460;2022-11-20T11:03:47;43.45;;;17.60;;
65863;SDS011;52639;51.180;20.460;2022-11-20T11:07:52;38.10;;;16.10;;
65863;SDS011;52639;51.180;20.460;2022-11-20T11:11:56;45.63;;;20.30;;
65863;SDS011;52639;51.180;20.460;2022-11-20T11:16:00;32.70;;;14.27;;
65863;SDS011;52639;51.180;20.460;2022-11-20T11:20:14;30.98;;;14.90;;
65863;SDS011;52639;51.180;20.460;2022-11-20T11:24:20;14.30;;;7.45;;
65863;SDS011;52639;51.180;20.460;2022-11-20T11:28:24;36.67;;;14.52;;
65863;SDS011;52639;51.180;20.460;2022-11-20T11:32:28;36.80;;;16.08;;
65863;SDS011;52639;51.180;20.460;2022-11-20T11:36:32;39.75;;;17.50;;
65863;SDS011;52639;51.180;20.460;2022-11-20T11:40:36;38.72;;;14.60;;
65863;SDS011;52639;51.180;20.460;2022-11-20T11:44:43;37.10;;;15.05;;
65863;SDS011;52639;51.180;20.460;2022-11-20T11:49:14;35.38;;;14.60;;
65863;SDS011;52639;51.180;20.460;2022-11-20T11:53:24;31.60;;;13.65;;
65863;SDS011;52639;51.180;20.460;2022-11-20T11:57:36;23.98;;;11.57;;
65863;SDS011;52639;51.180;20.460;2022-11-20T12:01:50;19.00;;;6.80;;
65863;SDS011;52639;51.180;20.460;2022-11-20T12:06:01;33.90;;;14.00;;
65863;SDS011;52639;51.180;20.460;2022-11-20T12:10:15;31.23;;;14.77;;
65863;SDS011;52639;51.180;20.460;2022-11-20T12:14:26;39.47;;;17.77;;
65863;SDS011;52639;51.180;20.460;2022-11-20T12:18:35;31.67;;;13.25;;
65863;SDS011;52639;51.180;20.460;2022-11-20T12:22:40;29.80;;;13.27;;
65863;SDS011;52639;51.180;20.460;2022-11-20T12:27:01;30.58;;;13.50;;
65863;SDS011;52639;51.180;20.460;2022-11-20T12:31:28;72.97;;;27.75;;
65863;SDS011;52639;51.180;20.460;2022-11-20T12:40:15;37.05;;;18.55;;
65863;SDS011;52639;51.180;20.460;2022-11-20T12:44:39;30.88;;;12.75;;
65863;SDS011;52639;51.180;20.460;2022-11-20T12:53:24;37.15;;;15.90;;
65863;SDS011;52639;51.180;20.460;2022-11-20T12:57:34;39.78;;;17.77;;
65863;SDS011;52639;51.180;20.460;2022-11-20T13:01:45;38.90;;;16.80;;
65863;SDS011;52639;51.180;20.460;2022-11-20T13:05:55;32.45;;;13.68;;
65863;SDS011;52639;51.180;20.460;2022-11-20T13:10:03;30.00;;;13.77;;
65863;SDS011;52639;51.180;20.460;2022-11-20T13:14:16;40.80;;;17.83;;
65863;SDS011;52639;51.180;20.460;2022-11-20T13:18:36;44.72;;;19.08;;
65863;SDS011;52639;51.180;20.460;2022-11-20T13:22:43;220.90;;;82.07;;
65863;SDS011;52639;51.180;20.460;2022-11-20T13:26:47;35.40;;;16.35;;
65863;SDS011;52639;51.180;20.460;2022-11-20T13:30:51;44.72;;;19.30;;
65863;SDS011;52639;51.180;20.460;2022-11-20T13:34:57;34.47;;;14.57;;
65863;SDS011;52639;51.180;20.460;2022-11-20T13:39:02;31.13;;;14.35;;
65863;SDS011;52639;51.180;20.460;2022-11-20T13:43:14;61.20;;;28.55;;
65863;SDS011;52639;51.180;20.460;2022-11-20T13:47:22;49.30;;;22.10;;
65863;SDS011;52639;51.180;20.460;2022-11-20T13:51:31;40.25;;;15.45;;
65863;SDS011;52639;51.180;20.460;2022-11-20T13:55:42;49.35;;;21.23;;
65863;SDS011;52639;51.180;20.460;2022-11-20T13:59:55;38.05;;;16.23;;
65863;SDS011;52639;51.180;20.460;2022-11-20T14:04:05;44.15;;;18.88;;
65863;SDS011;52639;51.180;20.460;2022-11-20T14:08:12;46.17;;;17.63;;
65863;SDS011;52639;51.180;20.460;2022-11-20T14:12:27;40.92;;;17.30;;
65863;SDS011;52639;51.180;20.460;2022-11-20T14:16:33;43.47;;;18.00;;
65863;SDS011;52639;51.180;20.460;2022-11-20T14:20:38;46.83;;;19.88;;
65863;SDS011;52639;51.180;20.460;2022-11-20T14:24:47;57.53;;;24.85;;
65863;SDS011;52639;51.180;20.460;2022-11-20T14:28:54;44.78;;;18.85;;
65863;SDS011;52639;51.180;20.460;2022-11-20T14:33:00;80.13;;;32.25;;
65863;SDS011;52639;51.180;20.460;2022-11-20T14:37:10;60.83;;;23.85;;
65863;SDS011;52639;51.180;20.460;2022-11-20T14:41:21;44.88;;;18.88;;
65863;SDS011;52639;51.180;20.460;2022-11-20T14:45:25;40.47;;;17.33;;
65863;SDS011;52639;51.180;20.460;2022-11-20T14:49:29;55.25;;;21.65;;
65863;SDS011;52639;51.180;20.460;2022-11-20T14:53:35;47.63;;;21.10;;
65863;SDS011;52639;51.180;20.460;2022-11-20T14:57:39;56.55;;;25.60;;
65863;SDS011;52639;51.180;20.460;2022-11-20T15:01:42;57.45;;;22.83;;
65863;SDS011;52639;51.180;20.460;2022-11-20T15:05:59;57.15;;;25.58;;
65863;SDS011;52639;51.180;20.460;2022-11-20T15:10:05;49.13;;;20.23;;
65863;SDS011;52639;51.180;20.460;2022-11-20T15:14:23;73.22;;;28.17;;
65863;SDS011;52639;51.180;20.460;2022-11-20T15:18:30;58.45;;;23.50;;
65863;SDS011;52639;51.180;20.460;2022-11-20T15:22:37;62.78;;;24.45;;
65863;SDS011;52639;51.180;20.460;2022-11-20T15:26:40;67.00;;;27.65;;
65863;SDS011;52639;51.180;20.460;2022-11-20T15:30:46;54.67;;;23.88;;
65863;SDS011;52639;51.180;20.460;2022-11-20T15:34:50;62.47;;;25.38;;
65863;SDS011;52639;51.180;20.460;2022-11-20T15:38:53;53.30;;;20.48;;
65863;SDS011;52639;51.180;20.460;2022-11-20T15:42:56;47.13;;;19.35;;
65863;SDS011;52639;51.180;20.460;2022-11-20T15:51:36;69.82;;;28.35;;
65863;SDS011;52639;51.180;20.460;2022-11-20T15:55:41;72.40;;;29.50;;
65863;SDS011;52639;51.180;20.460;2022-11-20T15:59:45;45.58;;;18.42;;
65863;SDS011;52639;51.180;20.460;2022-11-20T16:03:49;66.30;;;28.77;;
65863;SDS011;52639;51.180;20.460;2022-11-20T16:07:52;47.80;;;19.45;;
65863;SDS011;52639;51.180;20.460;2022-11-20T16:11:55;70.15;;;28.10;;
65863;SDS011;52639;51.180;20.460;2022-11-20T16:16:01;71.60;;;25.60;;
65863;SDS011;52639;51.180;20.460;2022-11-20T16:20:11;43.50;;;17.50;;
65863;SDS011;52639;51.180;20.460;2022-11-20T16:24:15;121.40;;;45.28;;
65863;SDS011;52639;51.180;20.460;2022-11-20T16:28:18;70.38;;;28.55;;
65863;SDS011;52639;51.180;20.460;2022-11-20T16:32:22;59.67;;;26.73;;
65863;SDS011;52639;51.180;20.460;2022-11-20T16:36:27;54.95;;;20.52;;
65863;SDS011;52639;51.180;20.460;2022-11-20T16:40:31;62.90;;;27.33;;
65863;SDS011;52639;51.180;20.460;2022-11-20T16:44:35;54.47;;;20.95;;
65863;SDS011;52639;51.180;20.460;2022-11-20T16:48:38;65.78;;;26.50;;
65863;SDS011;52639;51.180;20.460;2022-11-20T16:52:42;53.30;;;21.50;;
65863;SDS011;52639;51.180;20.460;2022-11-20T16:56:46;52.85;;;19.75;;
65863;SDS011;52639;51.180;20.460;2022-11-20T17:00:50;44.47;;;18.25;;
65863;SDS011;52639;51.180;20.460;2022-11-20T17:04:54;48.25;;;20.30;;
65863;SDS011;52639;51.180;20.460;2022-11-20T17:09:00;62.35;;;23.52;;
65863;SDS011;52639;51.180;20.460;2022-11-20T17:13:03;47.45;;;19.42;;
65863;SDS011;52639;51.180;20.460;2022-11-20T17:17:05;54.67;;;21.60;;
65863;SDS011;52639;51.180;20.460;2022-11-20T17:21:08;54.58;;;20.88;;
65863;SDS011;52639;51.180;20.460;2022-11-20T17:25:15;55.65;;;20.05;;
65863;SDS011;52639;51.180;20.460;2022-11-20T17:29:18;48.65;;;19.30;;
65863;SDS011;52639;51.180;20.460;2022-11-20T17:33:24;43.08;;;15.43;;
65863;SDS011;52639;51.180;20.460;2022-11-20T17:37:27;46.95;;;19.23;;
65863;SDS011;52639;51.180;20.460;2022-11-20T17:41:31;55.67;;;18.67;;
65863;SDS011;52639;51.180;20.460;2022-11-20T17:45:35;36.83;;;16.98;;
65863;SDS011;52639;51.180;20.460;2022-11-20T17:49:38;52.83;;;19.63;;
65863;SDS011;52639;51.180;20.460;2022-11-20T17:53:42;58.85;;;22.15;;
65863;SDS011;52639;51.180;20.460;2022-11-20T17:57:48;61.28;;;24.70;;
65863;SDS011;52639;51.180;20.460;2022-11-20T18:01:56;59.88;;;23.15;;
65863;SDS011;52639;51.180;20.460;2022-11-20T18:06:06;58.45;;;24.48;;
65863;SDS011;52639;51.180;20.460;2022-11-20T18:10:09;66.28;;;26.98;;
65863;SDS011;52639;51.180;20.460;2022-11-20T18:14:15;55.05;;;22.33;;
65863;SDS011;52639;51.180;20.460;2022-11-20T18:18:31;58.25;;;22.85;;
65863;SDS011;52639;51.180;20.460;2022-11-20T18:22:35;53.55;;;22.38;;
65863;SDS011;52639;51.180;20.460;2022-11-20T18:26:38;63.08;;;25.88;;
65863;SDS011;52639;51.180;20.460;2022-11-20T18:30:43;79.35;;;27.60;;
65863;SDS011;52639;51.180;20.460;2022-11-20T18:34:46;82.35;;;32.45;;
65863;SDS011;52639;51.180;20.460;2022-11-20T18:38:50;69.05;;;26.83;;
65863;SDS011;52639;51.180;20.460;2022-11-20T18:42:55;66.60;;;27.38;;
65863;SDS011;52639;51.180;20.460;2022-11-20T18:47:33;58.90;;;22.95;;
65863;SDS011;52639;51.180;20.460;2022-11-20T18:51:39;85.57;;;32.13;;
65863;SDS011;52639;51.180;20.460;2022-11-20T18:55:45;74.90;;;27.08;;
65863;SDS011;52639;51.180;20.460;2022-11-20T18:59:47;72.90;;;25.65;;
65863;SDS011;52639;51.180;20.460;2022-11-20T19:03:52;94.75;;;29.70;;
65863;SDS011;52639;51.180;20.460;2022-11-20T19:07:56;72.82;;;27.40;;
65863;SDS011;52639;51.180;20.460;2022-11-20T19:12:00;70.43;;;26.20;;
65863;SDS011;52639;51.180;20.460;2022-11-20T19:16:07;82.65;;;30.25;;
65863;SDS011;52639;51.180;20.460;2022-11-20T19:20:14;76.35;;;26.90;;
65863;SDS011;52639;51.180;20.460;2022-11-20T19:24:19;65.15;;;27.38;;
65863;SDS011;52639;51.180;20.460;2022-11-20T19:28:22;70.32;;;24.90;;
65863;SDS011;52639;51.180;20.460;2022-11-20T19:32:26;69.65;;;25.33;;
65863;SDS011;52639;51.180;20.460;2022-11-20T19:36:32;49.45;;;19.13;;
65863;SDS011;52639;51.180;20.460;2022-11-20T19:40:39;82.28;;;31.45;;
65863;SDS011;52639;51.180;20.460;2022-11-20T19:44:42;66.82;;;29.85;;
65863;SDS011;52639;51.180;20.460;2022-11-20T19:48:47;75.45;;;28.90;;
65863;SDS011;52639;51.180;20.460;2022-11-20T19:52:51;70.07;;;27.63;;
65863;SDS011;52639;51.180;20.460;2022-11-20T19:56:55;92.97;;;34.92;;
65863;SDS011;52639;51.180;20.460;2022-11-20T20:01:04;84.78;;;30.20;;
65863;SDS011;52639;51.180;20.460;2022-11-20T20:05:08;69.13;;;28.38;;
65863;SDS011;52639;51.180;20.460;2022-11-20T20:09:14;82.00;;;31.33;;
65863;SDS011;52639;51.180;20.460;2022-11-20T20:13:19;88.32;;;30.55;;
65863;SDS011;52639;51.180;20.460;2022-11-20T20:17:21;89.68;;;30.17;;
65863;SDS011;52639;51.180;20.460;2022-11-20T20:21:25;80.13;;;29.48;;
65863;SDS011;52639;51.180;20.460;2022-11-20T20:25:29;62.28;;;24.63;;
65863;SDS011;52639;51.180;20.460;2022-11-20T20:29:33;75.78;;;29.00;;
65863;SDS011;52639;51.180;20.460;2022-11-20T20:33:37;105.28;;;38.60;;
65863;SDS011;52639;51.180;20.460;2022-11-20T20:37:41;86.55;;;32.53;;
65863;SDS011;52639;51.180;20.460;2022-11-20T20:41:45;155.30;;;48.10;;
65863;SDS011;52639;51.180;20.460;2022-11-20T20:45:48;100.82;;;40.70;;
65863;SDS011;52639;51.180;20.460;2022-11-20T20:49:52;91.32;;;33.60;;
65863;SDS011;52639;51.180;20.460;2022-11-20T20:53:56;82.97;;;30.27;;
65863;SDS011;52639;51.180;20.460;2022-11-20T20:58:01;114.32;;;39.33;;
65863;SDS011;52639;51.180;20.460;2022-11-20T21:02:05;151.02;;;49.58;;
65863;SDS011;52639;51.180;20.460;2022-11-20T21:06:08;103.32;;;38.03;;
65863;SDS011;52639;51.180;20.460;2022-11-20T21:10:12;122.63;;;46.50;;
65863;SDS011;52639;51.180;20.460;2022-11-20T21:14:17;114.40;;;42.50;;
65863;SDS011;52639;51.180;20.460;2022-11-20T21:18:21;102.90;;;40.60;;
65863;SDS011;52639;51.180;20.460;2022-11-20T21:22:24;92.90;;;32.90;;
65863;SDS011;52639;51.180;20.460;2022-11-20T21:26:29;82.47;;;31.60;;
65863;SDS011;52639;51.180;20.460;2022-11-20T21:30:33;77.22;;;28.63;;
65863;SDS011;52639;51.180;20.460;2022-11-20T21:34:36;81.32;;;30.58;;
65863;SDS011;52639;51.180;20.460;2022-11-20T21:38:38;78.50;;;30.40;;
65863;SDS011;52639;51.180;20.460;2022-11-20T21:42:41;89.40;;;34.85;;
65863;SDS011;52639;51.180;20.460;2022-11-20T21:46:45;93.30;;;30.88;;
65863;SDS011;52639;51.180;20.460;2022-11-20T21:50:48;86.50;;;32.58;;
65863;SDS011;52639;51.180;20.460;2022-11-20T21:54:50;88.45;;;31.23;;
65863;SDS011;52639;51.180;20.460;2022-11-20T21:58:53;87.07;;;36.40;;
65863;SDS011;52639;51.180;20.460;2022-11-20T22:02:58;76.05;;;28.83;;
65863;SDS011;52639;51.180;20.460;2022-11-20T22:07:00;132.27;;;42.22;;
65863;SDS011;52639;51.180;20.460;2022-11-20T22:11:03;116.03;;;39.92;;
65863;SDS011;52639;51.180;20.460;2022-11-20T22:15:08;121.38;;;46.78;;
65863;SDS011;52639;51.180;20.460;2022-11-20T22:19:13;99.43;;;35.90;;
65863;SDS011;52639;51.180;20.460;2022-11-20T22:23:17;101.93;;;36.35;;
65863;SDS011;52639;51.180;20.460;2022-11-20T22:27:20;108.15;;;38.63;;
65863;SDS011;52639;51.180;20.460;2022-11-20T22:31:23;102.43;;;36.13;;
65863;SDS011;52639;51.180;20.460;2022-11-20T22:35:28;111.13;;;39.10;;
65863;SDS011;52639;51.180;20.460;2022-11-20T22:39:31;104.15;;;36.25;;
65863;SDS011;52639;51.180;20.460;2022-11-20T22:43:33;113.13;;;40.78;;
65863;SDS011;52639;51.180;20.460;2022-11-20T22:47:36;94.75;;;34.50;;
65863;SDS011;52639;51.180;20.460;2022-11-20T22:51:40;110.20;;;35.42;;
65863;SDS011;52639;51.180;20.460;2022-11-20T22:55:47;105.65;;;36.97;;
65863;SDS011;52639;51.180;20.460;2022-11-20T22:59:50;95.45;;;32.38;;
65863;SDS011;52639;51.180;20.460;2022-11-20T23:03:53;106.90;;;35.33;;
65863;SDS011;52639;51.180;20.460;2022-11-20T23:07:58;98.43;;;31.83;;
65863;SDS011;52639;51.180;20.460;2022-11-20T23:12:01;74.72;;;28.17;;
65863;SDS011;52639;51.180;20.460;2022-11-20T23:16:04;99.18;;;33.47;;
65863;SDS011;52639;51.180;20.460;2022-11-20T23:20:08;100.50;;;35.80;;
65863;SDS011;52639;51.180;20.460;2022-11-20T23:24:13;84.70;;;30.80;;
65863;SDS011;52639;51.180;20.460;2022-11-20T23:28:16;83.10;;;30.50;;
65863;SDS011;52639;51.180;20.460;2022-11-20T23:32:18;104.78;;;38.03;;
65863;SDS011;52639;51.180;20.460;2022-11-20T23:36:21;71.25;;;28.85;;
65863;SDS011;52639;51.180;20.460;2022-11-20T23:40:25;80.55;;;30.30;;
65863;SDS011;52639;51.180;20.460;2022-11-20T23:44:27;78.80;;;27.33;;
65863;SDS011;52639;51.180;20.460;2022-11-20T23:48:30;79.50;;;29.55;;
65863;SDS011;52639;51.180;20.460;2022-11-20T23:52:34;68.85;;;25.92;;
65863;SDS011;52639;51.180;20.460;2022-11-20T23:56:38;77.13;;;27.25;;
